Time,TemperatureF,DewpointF,PressureIn,WindDirection,WindDirectionDegrees,WindSpeedMPH,WindSpeedGustMPH,Humidity,HourlyPrecipIn,Conditions,Clouds,dailyrainin,SoftwareType,DateUTC
2013-02-07 00:00:00,44.8,32.6,30.03,SW,214,0.0,2.0,62,0.00,,SKC,0.00,VWS V14.01,2013-02-07 07:00:00,
2013-02-07 00:05:00,43.9,32.1,30.03,North,9,0.0,3.0,63,0.00,,SKC,0.00,VWS V14.01,2013-02-07 07:05:00,
2013-02-07 00:10:00,43.4,32.8,30.04,North,9,1.0,3.0,66,0.00,,SKC,0.00,VWS V14.01,2013-02-07 07:10:00,
2013-02-07 00:15:00,43.2,32.6,30.04,North,358,0.0,3.0,66,0.00,,SKC,0.00,VWS V14.01,2013-02-07 07:15:00,
2013-02-07 00:20:00,42.6,32.4,30.04,North,358,1.0,3.0,67,0.00,,SKC,0.00,VWS V14.01,2013-02-07 07:20:00,
2013-02-07 00:25:00,42.4,32.2,30.04,NE,56,0.0,3.0,67,0.00,,SKC,0.00,VWS V14.01,2013-02-07 07:25:00,
2013-02-07 00:30:00,42.0,32.2,30.04,NE,56,0.0,3.0,68,0.00,,SKC,0.00,VWS V14.01,2013-02-07 07:30:00,
2013-02-07 00:35:00,41.6,32.2,30.04,NE,35,1.0,2.0,69,0.00,,SKC,0.00,VWS V14.01,2013-02-07 07:35:00,
2013-02-07 00:40:00,41.7,31.9,30.05,NNW,347,0.0,2.0,68,0.00,,SKC,0.00,VWS V14.01,2013-02-07 07:40:00,
2013-02-07 00:45:00,41.5,31.7,30.05,NNW,347,1.0,2.0,68,0.00,,SKC,0.00,VWS V14.01,2013-02-07 07:45:00,
2013-02-07 00:50:00,40.9,31.5,30.05,North,359,0.0,2.0,69,0.00,,SKC,0.00,VWS V14.01,2013-02-07 07:50:00,
2013-02-07 00:55:00,41.0,31.6,30.05,North,11,2.0,2.0,69,0.00,,SKC,0.00,VWS V14.01,2013-02-07 07:55:00,
2013-02-07 01:01:00,41.2,31.8,30.05,ENE,66,1.0,1.0,69,0.00,,SKC,0.00,VWS V14.01,2013-02-07 08:01:00,
2013-02-07 01:06:00,41.2,31.5,30.05,NNE,13,2.0,3.0,68,0.00,,SKC,0.00,VWS V14.01,2013-02-07 08:06:00,
2013-02-07 01:11:00,40.9,31.5,30.05,NNE,12,1.0,3.0,69,0.00,,SKC,0.00,VWS V14.01,2013-02-07 08:11:00,
2013-02-07 01:16:00,40.8,31.4,30.06,North,3,2.0,3.0,69,0.00,,SKC,0.00,VWS V14.01,2013-02-07 08:16:00,
2013-02-07 01:21:00,40.5,31.1,30.06,NNW,345,0.0,3.0,69,0.00,,SKC,0.00,VWS V14.01,2013-02-07 08:21:00,
2013-02-07 01:26:00,40.3,31.0,30.06,North,5,1.0,3.0,69,0.00,,SKC,0.00,VWS V14.01,2013-02-07 08:26:00,
2013-02-07 01:31:00,40.1,31.1,30.06,NE,49,1.0,1.0,70,0.00,,SKC,0.00,VWS V14.01,2013-02-07 08:31:00,
2013-02-07 01:36:00,39.9,30.9,30.06,North,8,3.0,3.0,70,0.00,,SKC,0.00,VWS V14.01,2013-02-07 08:36:00,
2013-02-07 01:41:00,39.5,30.5,30.06,NNE,13,1.0,3.0,70,0.00,,SKC,0.00,VWS V14.01,2013-02-07 08:41:00,
2013-02-07 01:46:00,39.1,30.9,30.07,North,10,2.0,3.0,72,0.00,,SKC,0.00,VWS V14.01,2013-02-07 08:46:00,
2013-02-07 01:51:00,38.9,30.7,30.06,NNW,347,2.0,3.0,72,0.00,,SKC,0.00,VWS V14.01,2013-02-07 08:51:00,
2013-02-07 01:56:00,38.9,30.7,30.06,North,357,0.0,3.0,72,0.00,,SKC,0.00,VWS V14.01,2013-02-07 08:56:00,
2013-02-07 02:01:00,38.7,30.8,30.06,NNW,330,2.0,2.0,73,0.00,,SKC,0.00,VWS V14.01,2013-02-07 09:01:00,
2013-02-07 02:06:00,38.3,30.1,30.06,NNW,342,0.0,2.0,72,0.00,,SKC,0.00,VWS V14.01,2013-02-07 09:06:00,
2013-02-07 02:12:00,38.1,30.6,30.06,NNW,338,2.0,2.0,74,0.00,,SKC,0.00,VWS V14.01,2013-02-07 09:12:00,
2013-02-07 02:17:00,38.0,30.5,30.06,NNW,332,2.0,3.0,74,0.00,,SKC,0.00,VWS V14.01,2013-02-07 09:17:00,
2013-02-07 02:22:00,38.1,30.6,30.06,NNW,330,2.0,3.0,74,0.00,,SKC,0.00,VWS V14.01,2013-02-07 09:22:00,
2013-02-07 02:27:00,37.8,30.3,30.07,NNW,333,1.0,3.0,74,0.00,,SKC,0.00,VWS V14.01,2013-02-07 09:27:00,
2013-02-07 02:32:00,37.5,30.3,30.06,NNW,333,1.0,1.0,75,0.00,,SKC,0.00,VWS V14.01,2013-02-07 09:32:00,
2013-02-07 02:37:00,37.4,30.2,30.07,NNW,333,1.0,1.0,75,0.00,,SKC,0.00,VWS V14.01,2013-02-07 09:37:00,
2013-02-07 02:42:00,37.3,30.4,30.07,North,359,1.0,2.0,76,0.00,,SKC,0.00,VWS V14.01,2013-02-07 09:42:00,
2013-02-07 02:47:00,37.2,30.4,30.07,North,1,2.0,2.0,76,0.00,,SKC,0.00,VWS V14.01,2013-02-07 09:47:00,
2013-02-07 02:52:00,37.2,30.4,30.07,NNE,13,1.0,2.0,76,0.00,,SKC,0.00,VWS V14.01,2013-02-07 09:52:00,
2013-02-07 02:57:00,37.3,30.4,30.07,North,353,1.0,2.0,76,0.00,,SKC,0.00,VWS V14.01,2013-02-07 09:57:00,
2013-02-07 03:02:00,37.1,30.2,30.07,North,351,1.0,1.0,76,0.00,,SKC,0.00,VWS V14.01,2013-02-07 10:02:00,
2013-02-07 03:07:00,37.1,30.2,30.07,North,352,1.0,1.0,76,0.00,,SKC,0.00,VWS V14.01,2013-02-07 10:07:00,
2013-02-07 03:12:00,37.0,30.5,30.07,NE,41,1.0,2.0,77,0.00,,SKC,0.00,VWS V14.01,2013-02-07 10:12:00,
2013-02-07 03:17:00,36.8,30.3,30.07,North,360,2.0,2.0,77,0.00,,SKC,0.00,VWS V14.01,2013-02-07 10:17:00,
2013-02-07 03:22:00,36.8,30.3,30.07,North,11,1.0,2.0,77,0.00,,SKC,0.00,VWS V14.01,2013-02-07 10:22:00,
2013-02-07 03:28:00,36.7,30.2,30.07,North,9,1.0,2.0,77,0.00,,SKC,0.00,VWS V14.01,2013-02-07 10:28:00,
2013-02-07 03:33:00,36.6,30.4,30.07,NNE,18,0.0,1.0,78,0.00,,SKC,0.00,VWS V14.01,2013-02-07 10:33:00,
2013-02-07 03:38:00,36.5,30.0,30.07,North,9,1.0,2.0,77,0.00,,SKC,0.00,VWS V14.01,2013-02-07 10:38:00,
2013-02-07 03:43:00,36.4,30.2,30.07,NE,39,0.0,2.0,78,0.00,,SKC,0.00,VWS V14.01,2013-02-07 10:43:00,
2013-02-07 03:48:00,36.2,30.0,30.07,ENE,60,0.0,2.0,78,0.00,,SKC,0.00,VWS V14.01,2013-02-07 10:48:00,
2013-02-07 03:53:00,36.0,29.8,30.07,ENE,59,2.0,2.0,78,0.00,,SKC,0.00,VWS V14.01,2013-02-07 10:53:00,
2013-02-07 03:58:00,35.9,30.0,30.07,ENE,59,1.0,2.0,79,0.00,,SKC,0.00,VWS V14.01,2013-02-07 10:58:00,
2013-02-07 04:03:00,35.7,29.8,30.07,ENE,60,0.0,1.0,79,0.00,,SKC,0.00,VWS V14.01,2013-02-07 11:03:00,
2013-02-07 04:08:00,35.3,29.8,30.07,ENE,59,1.0,1.0,80,0.00,,SKC,0.00,VWS V14.01,2013-02-07 11:08:00,
2013-02-07 04:13:00,35.3,29.8,30.07,North,357,2.0,3.0,80,0.00,,SKC,0.00,VWS V14.01,2013-02-07 11:13:00,
2013-02-07 04:18:00,35.2,30.0,30.07,North,354,0.0,3.0,81,0.00,,SKC,0.00,VWS V14.01,2013-02-07 11:18:00,
2013-02-07 04:23:00,35.3,30.1,30.07,North,356,2.0,3.0,81,0.00,,SKC,0.00,VWS V14.01,2013-02-07 11:23:00,
2013-02-07 04:28:00,35.2,30.0,30.07,North,355,2.0,3.0,81,0.00,,SKC,0.00,VWS V14.01,2013-02-07 11:28:00,
2013-02-07 04:33:00,35.4,30.2,30.07,North,358,2.0,2.0,81,0.00,,SKC,0.00,VWS V14.01,2013-02-07 11:33:00,
2013-02-07 04:38:00,35.7,30.5,30.07,North,350,2.0,4.0,81,0.00,,SKC,0.00,VWS V14.01,2013-02-07 11:38:00,
2013-02-07 04:43:00,35.7,30.1,30.07,North,351,1.0,4.0,80,0.00,,SKC,0.00,VWS V14.01,2013-02-07 11:43:00,
2013-02-07 04:49:00,35.4,29.9,30.07,North,349,2.0,4.0,80,0.00,,SKC,0.00,VWS V14.01,2013-02-07 11:49:00,
2013-02-07 04:54:00,35.4,30.2,30.08,North,4,2.0,4.0,81,0.00,,SKC,0.00,VWS V14.01,2013-02-07 11:54:00,
2013-02-07 04:59:00,35.1,29.9,30.07,North,4,0.0,4.0,81,0.00,,SKC,0.00,VWS V14.01,2013-02-07 11:59:00,
2013-02-07 05:04:00,35.0,30.1,30.08,North,3,1.0,1.0,82,0.00,,SKC,0.00,VWS V14.01,2013-02-07 12:04:00,
2013-02-07 05:09:00,35.0,29.5,30.08,North,5,0.0,2.0,80,0.00,,SKC,0.00,VWS V14.01,2013-02-07 12:09:00,
2013-02-07 05:14:00,34.7,29.8,30.08,North,4,1.0,2.0,82,0.00,,SKC,0.00,VWS V14.01,2013-02-07 12:14:00,
2013-02-07 05:19:00,34.3,29.4,30.08,North,4,1.0,2.0,82,0.00,,SKC,0.00,VWS V14.01,2013-02-07 12:19:00,
2013-02-07 05:24:00,34.3,30.0,30.08,NNW,337,1.0,2.0,84,0.00,,SKC,0.00,VWS V14.01,2013-02-07 12:24:00,
2013-02-07 05:29:00,34.2,29.6,30.08,NNW,338,0.0,2.0,83,0.00,,SKC,0.00,VWS V14.01,2013-02-07 12:29:00,
2013-02-07 05:34:00,34.2,29.6,30.08,NNW,337,1.0,1.0,83,0.00,,SKC,0.00,VWS V14.01,2013-02-07 12:34:00,
2013-02-07 05:39:00,33.9,29.3,30.08,NNW,337,0.0,1.0,83,0.00,,SKC,0.00,VWS V14.01,2013-02-07 12:39:00,
2013-02-07 05:44:00,33.6,29.3,30.08,NNW,340,1.0,2.0,84,0.00,,SKC,0.00,VWS V14.01,2013-02-07 12:44:00,
2013-02-07 05:49:00,33.4,29.4,30.08,NNW,340,1.0,2.0,85,0.00,,SKC,0.00,VWS V14.01,2013-02-07 12:49:00,
2013-02-07 05:54:00,33.3,29.0,30.08,NNW,338,1.0,2.0,84,0.00,,SKC,0.00,VWS V14.01,2013-02-07 12:54:00,
2013-02-07 05:59:00,32.9,28.3,30.08,NNW,339,0.0,2.0,83,0.00,,SKC,0.00,VWS V14.01,2013-02-07 12:59:00,
2013-02-07 06:05:00,32.5,28.5,30.08,NNW,339,0.0,1.0,85,0.00,,SKC,0.00,VWS V14.01,2013-02-07 13:05:00,
2013-02-07 06:10:00,32.3,28.3,30.09,NNW,338,1.0,1.0,85,0.00,,SKC,0.00,VWS V14.01,2013-02-07 13:10:00,
2013-02-07 06:15:00,32.0,28.0,30.09,NNW,338,0.0,1.0,85,0.00,,SKC,0.00,VWS V14.01,2013-02-07 13:15:00,
2013-02-07 06:20:00,31.6,27.6,30.09,NNW,339,1.0,1.0,85,0.00,,SKC,0.00,VWS V14.01,2013-02-07 13:20:00,
2013-02-07 06:25:00,31.3,27.3,30.09,NNW,339,1.0,1.0,85,0.00,,SKC,0.00,VWS V14.01,2013-02-07 13:25:00,
2013-02-07 06:30:00,31.1,27.7,30.09,NNW,338,1.0,1.0,87,0.00,,SKC,0.00,VWS V14.01,2013-02-07 13:30:00,
2013-02-07 06:35:00,31.6,28.2,30.09,NNW,338,1.0,1.0,87,0.00,,SKC,0.00,VWS V14.01,2013-02-07 13:35:00,
2013-02-07 06:40:00,31.2,27.5,30.10,NNW,338,0.0,1.0,86,0.00,,SKC,0.00,VWS V14.01,2013-02-07 13:40:00,
2013-02-07 06:45:00,31.0,27.6,30.10,NNW,338,0.0,1.0,87,0.00,,SKC,0.00,VWS V14.01,2013-02-07 13:45:00,
2013-02-07 06:50:00,30.7,27.3,30.10,NNW,339,0.0,1.0,87,0.00,,SKC,0.00,VWS V14.01,2013-02-07 13:50:00,
2013-02-07 06:55:00,30.5,27.1,30.10,NNW,338,0.0,1.0,87,0.00,,SKC,0.00,VWS V14.01,2013-02-07 13:55:00,
2013-02-07 07:00:00,30.3,27.5,30.10,NNW,339,1.0,1.0,89,0.00,,SKC,0.00,VWS V14.01,2013-02-07 14:00:00,
2013-02-07 07:05:00,30.4,27.3,30.10,NNW,339,0.0,1.0,88,0.00,,SKC,0.00,VWS V14.01,2013-02-07 14:05:00,
2013-02-07 07:10:00,30.3,27.2,30.10,NNW,339,0.0,1.0,88,0.00,,SKC,0.00,VWS V14.01,2013-02-07 14:10:00,
2013-02-07 07:15:00,30.4,27.5,30.10,NNW,339,1.0,1.0,89,0.00,,SKC,0.00,VWS V14.01,2013-02-07 14:15:00,
2013-02-07 07:20:00,30.8,28.0,30.10,NNW,339,1.0,2.0,89,0.00,,SKC,0.00,VWS V14.01,2013-02-07 14:20:00,
2013-02-07 07:26:00,31.5,28.6,30.10,NNE,31,0.0,2.0,89,0.00,,SKC,0.00,VWS V14.01,2013-02-07 14:26:00,
2013-02-07 07:31:00,32.6,29.5,30.10,NNE,31,1.0,1.0,88,0.00,,SKC,0.00,VWS V14.01,2013-02-07 14:31:00,
2013-02-07 07:36:00,33.4,29.4,30.11,NNE,30,0.0,1.0,85,0.00,,SKC,0.00,VWS V14.01,2013-02-07 14:36:00,
2013-02-07 07:41:00,33.8,29.5,30.11,NNE,30,1.0,1.0,84,0.00,,SKC,0.00,VWS V14.01,2013-02-07 14:41:00,
2013-02-07 07:46:00,34.6,29.4,30.11,NNE,31,1.0,1.0,81,0.00,,SKC,0.00,VWS V14.01,2013-02-07 14:46:00,
2013-02-07 07:51:00,35.2,29.7,30.11,ENE,70,2.0,2.0,80,0.00,,SKC,0.00,VWS V14.01,2013-02-07 14:51:00,
2013-02-07 07:56:00,35.4,29.9,30.11,ENE,62,0.0,3.0,80,0.00,,SKC,0.00,VWS V14.01,2013-02-07 14:56:00,
2013-02-07 08:01:00,35.6,29.7,30.12,NE,48,2.0,2.0,79,0.00,,SKC,0.00,VWS V14.01,2013-02-07 15:01:00,
2013-02-07 08:06:00,35.9,30.0,30.12,NNE,30,0.0,2.0,79,0.00,,SKC,0.00,VWS V14.01,2013-02-07 15:06:00,
2013-02-07 08:11:00,36.7,30.5,30.12,NNE,32,1.0,2.0,78,0.00,,SKC,0.00,VWS V14.01,2013-02-07 15:11:00,
2013-02-07 08:16:00,37.5,31.0,30.12,NE,43,0.0,2.0,77,0.00,,SKC,0.00,VWS V14.01,2013-02-07 15:16:00,
2013-02-07 08:21:00,38.3,31.4,30.12,ENE,74,1.0,2.0,76,0.00,,SKC,0.00,VWS V14.01,2013-02-07 15:21:00,
2013-02-07 08:26:00,38.9,31.7,30.12,NE,46,3.0,3.0,75,0.00,,SKC,0.00,VWS V14.01,2013-02-07 15:26:00,
2013-02-07 08:31:00,39.3,31.7,30.12,ENE,74,2.0,3.0,74,0.00,,SKC,0.00,VWS V14.01,2013-02-07 15:31:00,
2013-02-07 08:36:00,39.8,31.9,30.13,ENE,64,2.0,3.0,73,0.00,,SKC,0.00,VWS V14.01,2013-02-07 15:36:00,
2013-02-07 08:41:00,40.7,32.4,30.12,ENE,75,1.0,3.0,72,0.00,,SKC,0.00,VWS V14.01,2013-02-07 15:41:00,
2013-02-07 08:46:00,41.4,32.7,30.13,NNE,23,2.0,3.0,71,0.00,,SKC,0.00,VWS V14.01,2013-02-07 15:46:00,
2013-02-07 08:52:00,42.0,32.9,30.13,NNE,28,2.0,4.0,70,0.00,,SKC,0.00,VWS V14.01,2013-02-07 15:52:00,
2013-02-07 08:57:00,42.7,33.2,30.13,ENE,63,2.0,5.0,69,0.00,,SKC,0.00,VWS V14.01,2013-02-07 15:57:00,
2013-02-07 09:02:00,43.6,33.8,30.13,ENE,63,3.0,4.0,68,0.00,,SKC,0.00,VWS V14.01,2013-02-07 16:02:00,
2013-02-07 09:07:00,44.1,33.9,30.13,North,5,2.0,4.0,67,0.00,,SKC,0.00,VWS V14.01,2013-02-07 16:07:00,
2013-02-07 09:12:00,44.6,34.0,30.13,NNE,18,2.0,4.0,66,0.00,,SKC,0.00,VWS V14.01,2013-02-07 16:12:00,
2013-02-07 09:17:00,45.3,34.2,30.13,ENE,62,2.0,4.0,65,0.00,,SKC,0.00,VWS V14.01,2013-02-07 16:17:00,
2013-02-07 09:22:00,46.2,34.7,30.13,ENE,63,3.0,4.0,64,0.00,,SKC,0.00,VWS V14.01,2013-02-07 16:22:00,
2013-02-07 09:27:00,47.2,34.9,30.12,North,8,2.0,4.0,62,0.00,,SKC,0.00,VWS V14.01,2013-02-07 16:27:00,
2013-02-07 09:32:00,48.1,35.3,30.12,North,9,2.0,2.0,61,0.00,,SKC,0.00,VWS V14.01,2013-02-07 16:32:00,
2013-02-07 09:37:00,49.0,35.7,30.12,ENE,62,3.0,3.0,60,0.00,,SKC,0.00,VWS V14.01,2013-02-07 16:37:00,
2013-02-07 09:42:00,49.9,36.2,30.12,North,9,3.0,3.0,59,0.00,,SKC,0.00,VWS V14.01,2013-02-07 16:42:00,
2013-02-07 09:47:00,50.5,35.8,30.12,ENE,64,4.0,5.0,57,0.00,,SKC,0.00,VWS V14.01,2013-02-07 16:47:00,
2013-02-07 09:52:00,50.9,36.2,30.12,North,9,2.0,5.0,57,0.00,,SKC,0.00,VWS V14.01,2013-02-07 16:52:00,
2013-02-07 09:57:00,51.3,36.2,30.12,NNE,12,2.0,5.0,56,0.00,,SKC,0.00,VWS V14.01,2013-02-07 16:57:00,
2013-02-07 10:02:00,52.2,36.5,30.12,ENE,60,1.0,3.0,55,0.00,,SKC,0.00,VWS V14.01,2013-02-07 17:02:00,
2013-02-07 10:07:00,53.2,37.0,30.12,SE,127,1.0,3.0,54,0.00,,SKC,0.00,VWS V14.01,2013-02-07 17:07:00,
2013-02-07 10:12:00,54.1,37.4,30.12,North,11,2.0,3.0,53,0.00,,SKC,0.00,VWS V14.01,2013-02-07 17:12:00,
2013-02-07 10:18:00,54.4,37.2,30.11,East,84,2.0,3.0,52,0.00,,SKC,0.00,VWS V14.01,2013-02-07 17:18:00,
2013-02-07 10:23:00,55.4,37.1,30.11,South,189,1.0,3.0,50,0.00,,SKC,0.00,VWS V14.01,2013-02-07 17:23:00,
2013-02-07 10:28:00,56.0,37.6,30.11,ENE,65,2.0,3.0,50,0.00,,SKC,0.00,VWS V14.01,2013-02-07 17:28:00,
2013-02-07 10:33:00,56.8,37.9,30.11,SSE,162,1.0,1.0,49,0.00,,SKC,0.00,VWS V14.01,2013-02-07 17:33:00,
2013-02-07 10:38:00,57.6,38.1,30.11,ENE,70,0.0,2.0,48,0.00,,SKC,0.00,VWS V14.01,2013-02-07 17:38:00,
2013-02-07 10:43:00,58.2,38.1,30.11,SSE,168,1.0,2.0,47,0.00,,SKC,0.00,VWS V14.01,2013-02-07 17:43:00,
2013-02-07 10:48:00,58.3,37.6,30.10,SSW,204,0.0,2.0,46,0.00,,SKC,0.00,VWS V14.01,2013-02-07 17:48:00,
2013-02-07 10:53:00,58.6,37.3,30.10,SSW,203,1.0,2.0,45,0.00,,SKC,0.00,VWS V14.01,2013-02-07 17:53:00,
2013-02-07 10:58:00,59.3,36.2,30.10,North,354,4.0,4.0,42,0.00,,SKC,0.00,VWS V14.01,2013-02-07 17:58:00,
2013-02-07 11:03:00,58.9,33.4,30.10,NNW,348,2.0,2.0,38,0.00,,SKC,0.00,VWS V14.01,2013-02-07 18:03:00,
2013-02-07 11:08:00,58.8,32.6,30.10,West,274,1.0,4.0,37,0.00,,SKC,0.00,VWS V14.01,2013-02-07 18:08:00,
2013-02-07 11:13:00,59.4,33.8,30.10,NW,319,2.0,4.0,38,0.00,,SKC,0.00,VWS V14.01,2013-02-07 18:13:00,
2013-02-07 11:18:00,59.6,34.6,30.09,North,8,1.0,4.0,39,0.00,,SKC,0.00,VWS V14.01,2013-02-07 18:18:00,
2013-02-07 11:24:00,59.9,32.9,30.09,SW,218,2.0,4.0,36,0.00,,SKC,0.00,VWS V14.01,2013-02-07 18:24:00,
2013-02-07 11:29:00,60.3,33.9,30.09,SSW,203,1.0,4.0,37,0.00,,SKC,0.00,VWS V14.01,2013-02-07 18:29:00,
2013-02-07 11:34:00,60.9,34.5,30.09,WNW,290,1.0,1.0,37,0.00,,SKC,0.00,VWS V14.01,2013-02-07 18:34:00,
2013-02-07 11:39:00,61.0,33.9,30.08,NNW,341,3.0,5.0,36,0.00,,SKC,0.00,VWS V14.01,2013-02-07 18:39:00,
2013-02-07 11:44:00,61.1,34.0,30.08,ESE,122,4.0,5.0,36,0.00,,SKC,0.00,VWS V14.01,2013-02-07 18:44:00,
2013-02-07 11:49:00,61.2,34.1,30.08,South,176,0.0,5.0,36,0.00,,SKC,0.00,VWS V14.01,2013-02-07 18:49:00,
2013-02-07 11:54:00,61.9,34.7,30.08,SSW,212,3.0,5.0,36,0.00,,SKC,0.00,VWS V14.01,2013-02-07 18:54:00,
2013-02-07 11:59:00,62.0,33.3,30.08,North,8,0.0,5.0,34,0.00,,SKC,0.00,VWS V14.01,2013-02-07 18:59:00,
2013-02-07 12:04:00,61.9,33.2,30.07,South,190,2.0,3.0,34,0.00,,SKC,0.00,VWS V14.01,2013-02-07 19:04:00,
2013-02-07 12:09:00,61.6,33.0,30.07,NE,53,1.0,4.0,34,0.00,,SKC,0.00,VWS V14.01,2013-02-07 19:09:00,
2013-02-07 12:14:00,61.9,32.5,30.07,SE,128,2.0,4.0,33,0.00,,SKC,0.00,VWS V14.01,2013-02-07 19:14:00,
2013-02-07 12:19:00,61.7,32.3,30.06,North,8,2.0,5.0,33,0.00,,SKC,0.00,VWS V14.01,2013-02-07 19:19:00,
2013-02-07 12:24:00,61.2,32.6,30.06,NNE,32,2.0,9.0,34,0.00,,SKC,0.00,VWS V14.01,2013-02-07 19:24:00,
2013-02-07 12:30:00,61.3,32.7,30.05,SW,236,3.0,9.0,34,0.00,,SKC,0.00,VWS V14.01,2013-02-07 19:30:00,
2013-02-07 12:35:00,61.8,33.2,30.05,WSW,252,0.0,6.0,34,0.00,,SKC,0.00,VWS V14.01,2013-02-07 19:35:00,
2013-02-07 12:40:00,62.8,32.5,30.05,SE,136,2.0,7.0,32,0.00,,SKC,0.00,VWS V14.01,2013-02-07 19:40:00,
2013-02-07 12:45:00,63.2,32.9,30.05,ESE,120,3.0,7.0,32,0.00,,SKC,0.00,VWS V14.01,2013-02-07 19:45:00,
2013-02-07 12:50:00,63.9,32.7,30.05,NE,53,5.0,7.0,31,0.00,,SKC,0.00,VWS V14.01,2013-02-07 19:50:00,
2013-02-07 12:55:00,63.0,31.9,30.04,ENE,75,2.0,7.0,31,0.00,,SKC,0.00,VWS V14.01,2013-02-07 19:55:00,
2013-02-07 13:00:00,62.6,31.6,30.04,North,8,2.0,7.0,31,0.00,,SKC,0.00,VWS V14.01,2013-02-07 20:00:00,
2013-02-07 13:05:00,63.3,32.2,30.04,SE,136,6.0,6.0,31,0.00,,SKC,0.00,VWS V14.01,2013-02-07 20:05:00,
2013-02-07 13:10:00,63.6,31.6,30.03,NNE,29,7.0,7.0,30,0.00,,SKC,0.00,VWS V14.01,2013-02-07 20:10:00,
2013-02-07 13:15:00,62.9,31.0,30.03,NNE,16,4.0,8.0,30,0.00,,SKC,0.00,VWS V14.01,2013-02-07 20:15:00,
2013-02-07 13:20:00,62.6,30.8,30.03,West,281,2.0,8.0,30,0.00,,SKC,0.00,VWS V14.01,2013-02-07 20:20:00,
2013-02-07 13:25:00,62.6,29.9,30.02,WSW,242,1.0,8.0,29,0.00,,SKC,0.00,VWS V14.01,2013-02-07 20:25:00,
2013-02-07 13:30:00,63.3,30.5,30.02,NNW,331,2.0,8.0,29,0.00,,SKC,0.00,VWS V14.01,2013-02-07 20:30:00,
2013-02-07 13:35:00,63.6,29.0,30.01,ESE,118,3.0,5.0,27,0.00,,SKC,0.00,VWS V14.01,2013-02-07 20:35:00,
2013-02-07 13:40:00,64.0,29.4,30.01,South,184,0.0,5.0,27,0.00,,SKC,0.00,VWS V14.01,2013-02-07 20:40:00,
2013-02-07 13:45:00,63.8,29.2,30.01,NNE,18,0.0,7.0,27,0.00,,SKC,0.00,VWS V14.01,2013-02-07 20:45:00,
2013-02-07 13:50:00,63.7,28.2,30.01,South,184,2.0,7.0,26,0.00,,SKC,0.00,VWS V14.01,2013-02-07 20:50:00,
2013-02-07 13:55:00,64.4,28.8,30.01,NNE,32,2.0,7.0,26,0.00,,SKC,0.00,VWS V14.01,2013-02-07 20:55:00,
2013-02-07 14:00:00,65.0,28.4,30.01,North,7,4.0,4.0,25,0.00,,SKC,0.00,VWS V14.01,2013-02-07 21:00:00,
2013-02-07 14:05:00,64.8,28.2,30.00,ENE,78,1.0,4.0,25,0.00,,SKC,0.00,VWS V14.01,2013-02-07 21:05:00,
2013-02-07 14:11:00,65.9,27.1,30.00,East,94,6.0,6.0,23,0.00,,SKC,0.00,VWS V14.01,2013-02-07 21:11:00,
2013-02-07 14:16:00,66.1,25.1,30.00,ENE,60,7.0,7.0,21,0.00,,SKC,0.00,VWS V14.01,2013-02-07 21:16:00,
2013-02-07 14:21:00,65.6,25.8,30.00,South,169,2.0,7.0,22,0.00,,SKC,0.00,VWS V14.01,2013-02-07 21:21:00,
2013-02-07 14:26:00,66.0,25.0,30.00,East,84,4.0,8.0,21,0.00,,SKC,0.00,VWS V14.01,2013-02-07 21:26:00,
2013-02-07 14:31:00,66.3,25.2,29.99,SE,124,3.0,3.0,21,0.00,,SKC,0.00,VWS V14.01,2013-02-07 21:31:00,
2013-02-07 14:36:00,66.8,25.6,29.99,SSW,193,0.0,3.0,21,0.00,,SKC,0.00,VWS V14.01,2013-02-07 21:36:00,
2013-02-07 14:41:00,65.9,26.0,29.99,NNW,347,0.0,3.0,22,0.00,,SKC,0.00,VWS V14.01,2013-02-07 21:41:00,
2013-02-07 14:46:00,66.0,26.1,29.99,South,191,2.0,4.0,22,0.00,,SKC,0.00,VWS V14.01,2013-02-07 21:46:00,
2013-02-07 14:51:00,66.1,26.2,29.99,North,6,2.0,5.0,22,0.00,,SKC,0.00,VWS V14.01,2013-02-07 21:51:00,
2013-02-07 14:56:00,65.9,26.0,29.99,East,82,0.0,5.0,22,0.00,,SKC,0.00,VWS V14.01,2013-02-07 21:56:00,
2013-02-07 15:01:00,66.4,26.4,29.99,SSE,148,3.0,4.0,22,0.00,,SKC,0.00,VWS V14.01,2013-02-07 22:01:00,
2013-02-07 15:06:00,66.9,25.7,29.99,NE,41,3.0,4.0,21,0.00,,SKC,0.00,VWS V14.01,2013-02-07 22:06:00,
2013-02-07 15:11:00,66.5,25.4,29.98,ESE,103,1.0,4.0,21,0.00,,SKC,0.00,VWS V14.01,2013-02-07 22:11:00,
2013-02-07 15:16:00,66.7,25.6,29.98,SSE,155,6.0,6.0,21,0.00,,SKC,0.00,VWS V14.01,2013-02-07 22:16:00,
2013-02-07 15:21:00,65.8,25.9,29.98,West,277,2.0,6.0,22,0.00,,SKC,0.00,VWS V14.01,2013-02-07 22:21:00,
2013-02-07 15:26:00,66.4,25.3,29.98,SW,218,3.0,6.0,21,0.00,,SKC,0.00,VWS V14.01,2013-02-07 22:26:00,
2013-02-07 15:31:00,66.3,25.2,29.98,WSW,242,3.0,7.0,21,0.00,,SKC,0.00,VWS V14.01,2013-02-07 22:31:00,
2013-02-07 15:36:00,66.0,26.1,29.98,SW,217,3.0,7.0,22,0.00,,SKC,0.00,VWS V14.01,2013-02-07 22:36:00,
2013-02-07 15:42:00,65.9,24.9,29.98,West,259,0.0,7.0,21,0.00,,SKC,0.00,VWS V14.01,2013-02-07 22:42:00,
2013-02-07 15:47:00,66.4,25.3,29.97,SE,137,1.0,7.0,21,0.00,,SKC,0.00,VWS V14.01,2013-02-07 22:47:00,
2013-02-07 15:52:00,66.7,25.6,29.97,North,1,3.0,7.0,21,0.00,,SKC,0.00,VWS V14.01,2013-02-07 22:52:00,
2013-02-07 15:57:00,66.5,25.4,29.98,East,94,2.0,7.0,21,0.00,,SKC,0.00,VWS V14.01,2013-02-07 22:57:00,
2013-02-07 16:02:00,66.7,24.4,29.97,SSW,208,2.0,4.0,20,0.00,,SKC,0.00,VWS V14.01,2013-02-07 23:02:00,
2013-02-07 16:07:00,66.7,24.4,29.97,ENE,73,2.0,4.0,20,0.00,,SKC,0.00,VWS V14.01,2013-02-07 23:07:00,
2013-02-07 16:12:00,66.6,23.1,29.97,WSW,246,1.0,4.0,19,0.00,,SKC,0.00,VWS V14.01,2013-02-07 23:12:00,
2013-02-07 16:17:00,66.5,23.0,29.97,West,262,0.0,4.0,19,0.00,,SKC,0.00,VWS V14.01,2013-02-07 23:17:00,
2013-02-07 16:22:00,66.6,23.1,29.97,ENE,68,3.0,5.0,19,0.00,,SKC,0.00,VWS V14.01,2013-02-07 23:22:00,
2013-02-07 16:27:00,66.5,23.0,29.97,SSE,154,2.0,5.0,19,0.00,,SKC,0.00,VWS V14.01,2013-02-07 23:27:00,
2013-02-07 16:32:00,66.8,24.5,29.97,ENE,75,0.0,2.0,20,0.00,,SKC,0.00,VWS V14.01,2013-02-07 23:32:00,
2013-02-07 16:37:00,67.0,23.4,29.97,ENE,68,0.0,3.0,19,0.00,,SKC,0.00,VWS V14.01,2013-02-07 23:37:00,
2013-02-07 16:43:00,67.2,23.6,29.97,NE,56,2.0,3.0,19,0.00,,SKC,0.00,VWS V14.01,2013-02-07 23:43:00,
2013-02-07 16:48:00,67.0,23.4,29.97,ENE,60,1.0,3.0,19,0.00,,SKC,0.00,VWS V14.01,2013-02-07 23:48:00,
2013-02-07 16:53:00,66.6,24.3,29.97,East,84,2.0,4.0,20,0.00,,SKC,0.00,VWS V14.01,2013-02-07 23:53:00,
2013-02-07 16:58:00,66.7,23.2,29.97,East,84,1.0,4.0,19,0.00,,SKC,0.00,VWS V14.01,2013-02-07 23:58:00,
2013-02-07 17:03:00,66.7,23.2,29.97,ESE,112,0.0,2.0,19,0.00,,SKC,0.00,VWS V14.01,2013-02-08 00:03:00,
2013-02-07 17:08:00,66.2,24.0,29.97,WSW,255,2.0,3.0,20,0.00,,SKC,0.00,VWS V14.01,2013-02-08 00:08:00,
2013-02-07 17:13:00,66.0,25.0,29.97,WSW,256,0.0,3.0,21,0.00,,SKC,0.00,VWS V14.01,2013-02-08 00:13:00,
2013-02-07 17:18:00,65.9,23.7,29.97,NW,310,2.0,3.0,20,0.00,,SKC,0.00,VWS V14.01,2013-02-08 00:18:00,
2013-02-07 17:23:00,65.6,24.6,29.97,North,1,0.0,3.0,21,0.00,,SKC,0.00,VWS V14.01,2013-02-08 00:23:00,
2013-02-07 17:28:00,65.5,24.6,29.97,WSW,247,2.0,3.0,21,0.00,,SKC,0.00,VWS V14.01,2013-02-08 00:28:00,
2013-02-07 17:33:00,65.2,24.3,29.96,WSW,247,1.0,1.0,21,0.00,,SKC,0.00,VWS V14.01,2013-02-08 00:33:00,
2013-02-07 17:38:00,64.9,24.1,29.97,WSW,248,0.0,2.0,21,0.00,,SKC,0.00,VWS V14.01,2013-02-08 00:38:00,
2013-02-07 17:43:00,64.4,24.8,29.97,WSW,248,0.0,2.0,22,0.00,,SKC,0.00,VWS V14.01,2013-02-08 00:43:00,
2013-02-07 17:48:00,63.4,25.0,29.97,WSW,249,2.0,2.0,23,0.00,,SKC,0.00,VWS V14.01,2013-02-08 00:48:00,
2013-02-07 17:54:00,62.8,24.5,29.96,West,259,2.0,2.0,23,0.00,,SKC,0.00,VWS V14.01,2013-02-08 00:54:00,
2013-02-07 17:59:00,62.2,25.0,29.96,West,259,0.0,2.0,24,0.00,,SKC,0.00,VWS V14.01,2013-02-08 00:59:00,
2013-02-07 18:04:00,61.2,25.1,29.97,West,260,1.0,1.0,25,0.00,,SKC,0.00,VWS V14.01,2013-02-08 01:04:00,
2013-02-07 18:09:00,60.1,25.1,29.97,WSW,258,0.0,1.0,26,0.00,,SKC,0.00,VWS V14.01,2013-02-08 01:09:00,
2013-02-07 18:14:00,59.3,24.4,29.97,WSW,241,2.0,2.0,26,0.00,,SKC,0.00,VWS V14.01,2013-02-08 01:14:00,
2013-02-07 18:19:00,59.2,24.4,29.97,SW,218,3.0,4.0,26,0.00,,SKC,0.00,VWS V14.01,2013-02-08 01:19:00,
2013-02-07 18:24:00,59.0,24.2,29.97,SW,217,2.0,4.0,26,0.00,,SKC,0.00,VWS V14.01,2013-02-08 01:24:00,
2013-02-07 18:29:00,58.9,24.1,29.97,WSW,258,0.0,4.0,26,0.00,,SKC,0.00,VWS V14.01,2013-02-08 01:29:00,
2013-02-07 18:34:00,58.4,23.7,29.97,WSW,238,2.0,3.0,26,0.00,,SKC,0.00,VWS V14.01,2013-02-08 01:34:00,
2013-02-07 18:39:00,57.5,24.7,29.97,SSE,149,2.0,3.0,28,0.00,,SKC,0.00,VWS V14.01,2013-02-08 01:39:00,
2013-02-07 18:44:00,57.0,24.2,29.97,SSE,155,2.0,4.0,28,0.00,,SKC,0.00,VWS V14.01,2013-02-08 01:44:00,
2013-02-07 18:49:00,56.2,24.4,29.97,SSW,194,1.0,4.0,29,0.00,,SKC,0.00,VWS V14.01,2013-02-08 01:49:00,
2013-02-07 18:54:00,55.3,24.4,29.97,SSW,212,2.0,4.0,30,0.00,,SKC,0.00,VWS V14.01,2013-02-08 01:54:00,
2013-02-07 18:59:00,55.3,25.2,29.97,SW,217,1.0,4.0,31,0.00,,SKC,0.00,VWS V14.01,2013-02-08 01:59:00,
2013-02-07 19:04:00,55.5,25.4,29.97,SW,216,0.0,1.0,31,0.00,,SKC,0.00,VWS V14.01,2013-02-08 02:04:00,
2013-02-07 19:10:00,55.1,25.8,29.98,SW,217,1.0,1.0,32,0.00,,SKC,0.00,VWS V14.01,2013-02-08 02:10:00,
2013-02-07 19:15:00,54.9,26.4,29.98,SW,215,2.0,2.0,33,0.00,,SKC,0.00,VWS V14.01,2013-02-08 02:15:00,
2013-02-07 19:20:00,54.6,26.1,29.98,SW,218,1.0,2.0,33,0.00,,SKC,0.00,VWS V14.01,2013-02-08 02:20:00,
2013-02-07 19:25:00,54.2,26.5,29.98,SSW,212,1.0,2.0,34,0.00,,SKC,0.00,VWS V14.01,2013-02-08 02:25:00,
2013-02-07 19:30:00,54.0,26.3,29.98,NW,311,2.0,3.0,34,0.00,,SKC,0.00,VWS V14.01,2013-02-08 02:30:00,
2013-02-07 19:35:00,53.5,26.5,29.99,WNW,297,2.0,2.0,35,0.00,,SKC,0.00,VWS V14.01,2013-02-08 02:35:00,
2013-02-07 19:40:00,52.7,26.5,29.99,SW,214,0.0,2.0,36,0.00,,SKC,0.00,VWS V14.01,2013-02-08 02:40:00,
2013-02-07 19:45:00,52.2,26.1,29.99,NW,306,1.0,2.0,36,0.00,,SKC,0.00,VWS V14.01,2013-02-08 02:45:00,
2013-02-07 19:50:00,52.0,26.5,29.99,WSW,243,0.0,2.0,37,0.00,,SKC,0.00,VWS V14.01,2013-02-08 02:50:00,
2013-02-07 19:55:00,51.2,25.8,29.99,WSW,243,0.0,2.0,37,0.00,,SKC,0.00,VWS V14.01,2013-02-08 02:55:00,
2013-02-07 20:00:00,50.4,26.4,29.99,West,267,0.0,0.0,39,0.00,,SKC,0.00,VWS V14.01,2013-02-08 03:00:00,
2013-02-07 20:05:00,49.4,25.5,29.99,West,266,0.0,0.0,39,0.00,,SKC,0.00,VWS V14.01,2013-02-08 03:05:00,
2013-02-07 20:11:00,49.2,25.9,29.99,West,267,0.0,1.0,40,0.00,,SKC,0.00,VWS V14.01,2013-02-08 03:11:00,
2013-02-07 20:16:00,49.0,25.8,29.99,West,267,1.0,1.0,40,0.00,,SKC,0.00,VWS V14.01,2013-02-08 03:16:00,
2013-02-07 20:21:00,47.6,26.2,29.99,NW,315,1.0,1.0,43,0.00,,SKC,0.00,VWS V14.01,2013-02-08 03:21:00,
2013-02-07 20:26:00,47.2,26.4,29.99,East,82,2.0,2.0,44,0.00,,SKC,0.00,VWS V14.01,2013-02-08 03:26:00,
2013-02-07 20:31:00,46.4,25.7,29.99,East,83,0.0,0.0,44,0.00,,SKC,0.00,VWS V14.01,2013-02-08 03:31:00,
2013-02-07 20:36:00,45.5,25.4,29.99,East,82,1.0,1.0,45,0.00,,SKC,0.00,VWS V14.01,2013-02-08 03:36:00,
2013-02-07 20:41:00,45.1,25.0,29.99,East,82,0.0,2.0,45,0.00,,SKC,0.00,VWS V14.01,2013-02-08 03:41:00,
2013-02-07 20:46:00,44.6,24.6,29.99,East,82,0.0,2.0,45,0.00,,SKC,0.00,VWS V14.01,2013-02-08 03:46:00,
2013-02-07 20:51:00,44.1,23.6,29.99,East,82,0.0,2.0,44,0.00,,SKC,0.00,VWS V14.01,2013-02-08 03:51:00,
2013-02-07 20:56:00,43.5,24.1,29.99,East,82,0.0,2.0,46,0.00,,SKC,0.00,VWS V14.01,2013-02-08 03:56:00,
2013-02-07 21:01:00,43.0,24.7,29.99,East,82,1.0,1.0,48,0.00,,SKC,0.00,VWS V14.01,2013-02-08 04:01:00,
2013-02-07 21:07:00,42.9,24.1,29.99,East,82,0.0,1.0,47,0.00,,SKC,0.00,VWS V14.01,2013-02-08 04:07:00,
2013-02-07 21:12:00,42.4,24.1,30.00,East,82,0.0,1.0,48,0.00,,SKC,0.00,VWS V14.01,2013-02-08 04:12:00,
2013-02-07 21:17:00,42.2,24.9,30.00,East,82,0.0,1.0,50,0.00,,SKC,0.00,VWS V14.01,2013-02-08 04:17:00,
2013-02-07 21:22:00,42.2,24.9,29.99,East,82,1.0,1.0,50,0.00,,SKC,0.00,VWS V14.01,2013-02-08 04:22:00,
2013-02-07 21:27:00,42.1,25.3,30.00,East,82,1.0,1.0,51,0.00,,SKC,0.00,VWS V14.01,2013-02-08 04:27:00,
2013-02-07 21:32:00,41.7,24.0,30.00,East,82,0.0,1.0,49,0.00,,SKC,0.00,VWS V14.01,2013-02-08 04:32:00,
2013-02-07 21:37:00,41.4,25.1,30.00,East,82,1.0,1.0,52,0.00,,SKC,0.00,VWS V14.01,2013-02-08 04:37:00,
2013-02-07 21:42:00,41.6,24.8,30.00,East,82,1.0,1.0,51,0.00,,SKC,0.00,VWS V14.01,2013-02-08 04:42:00,
2013-02-07 21:47:00,41.3,26.4,30.00,East,82,0.0,1.0,55,0.00,,SKC,0.00,VWS V14.01,2013-02-08 04:47:00,
2013-02-07 21:52:00,40.7,25.8,30.00,East,82,0.0,1.0,55,0.00,,SKC,0.00,VWS V14.01,2013-02-08 04:52:00,
2013-02-07 21:57:00,40.3,25.0,30.00,East,82,0.0,1.0,54,0.00,,SKC,0.00,VWS V14.01,2013-02-08 04:57:00,
2013-02-07 22:00:00,40.2,24.5,29.99,East,82,0.0,1.0,53,0.00,,SKC,0.00,VWS V14.01,2013-02-08 05:00:00,
2013-02-07 22:01:00,40.1,24.4,29.99,East,82,0.0,0.0,53,0.00,,SKC,0.00,VWS V14.01,2013-02-08 05:01:00,
2013-02-07 22:02:00,40.0,24.3,29.99,East,82,0.0,0.0,53,0.00,,SKC,0.00,VWS V14.01,2013-02-08 05:02:00,
2013-02-07 22:07:00,39.4,23.7,29.99,East,82,0.0,0.0,53,0.00,,SKC,0.00,VWS V14.01,2013-02-08 05:07:00,
2013-02-07 22:13:00,39.0,23.8,29.99,East,82,0.0,0.0,54,0.00,,SKC,0.00,VWS V14.01,2013-02-08 05:13:00,
2013-02-07 22:18:00,38.8,24.0,29.99,East,82,1.0,1.0,55,0.00,,SKC,0.00,VWS V14.01,2013-02-08 05:18:00,
2013-02-07 22:23:00,38.7,24.8,30.00,East,82,0.0,1.0,57,0.00,,SKC,0.00,VWS V14.01,2013-02-08 05:23:00,
2013-02-07 22:28:00,39.2,24.8,30.00,East,80,0.0,1.0,56,0.00,,SKC,0.00,VWS V14.01,2013-02-08 05:28:00,
2013-02-07 22:33:00,39.3,24.9,30.00,East,82,1.0,1.0,56,0.00,,SKC,0.00,VWS V14.01,2013-02-08 05:33:00,
2013-02-07 22:38:00,38.9,24.6,30.00,East,82,0.0,1.0,56,0.00,,SKC,0.00,VWS V14.01,2013-02-08 05:38:00,
2013-02-07 22:43:00,38.3,24.0,30.00,East,80,0.0,1.0,56,0.00,,SKC,0.00,VWS V14.01,2013-02-08 05:43:00,
2013-02-07 22:48:00,37.7,23.9,30.00,East,82,1.0,1.0,57,0.00,,SKC,0.00,VWS V14.01,2013-02-08 05:48:00,
2013-02-07 22:53:00,37.8,25.2,30.00,ENE,68,1.0,2.0,60,0.00,,SKC,0.00,VWS V14.01,2013-02-08 05:53:00,
2013-02-07 22:58:00,38.2,25.5,29.99,ENE,68,0.0,2.0,60,0.00,,SKC,0.00,VWS V14.01,2013-02-08 05:58:00,
2013-02-07 23:03:00,38.2,25.1,30.00,ENE,68,0.0,0.0,59,0.00,,SKC,0.00,VWS V14.01,2013-02-08 06:03:00,
2013-02-07 23:08:00,38.4,26.1,30.00,ENE,68,1.0,1.0,61,0.00,,SKC,0.00,VWS V14.01,2013-02-08 06:08:00,
2013-02-07 23:13:00,38.9,25.8,30.00,ENE,58,1.0,1.0,59,0.00,,SKC,0.00,VWS V14.01,2013-02-08 06:13:00,
2013-02-07 23:18:00,39.5,26.0,30.00,NE,52,0.0,1.0,58,0.00,,SKC,0.00,VWS V14.01,2013-02-08 06:18:00,
2013-02-07 23:23:00,39.5,25.5,30.00,ENE,65,1.0,1.0,57,0.00,,SKC,0.00,VWS V14.01,2013-02-08 06:23:00,
2013-02-07 23:28:00,38.9,25.4,30.00,ENE,65,1.0,1.0,58,0.00,,SKC,0.00,VWS V14.01,2013-02-08 06:28:00,
2013-02-07 23:34:00,38.9,25.4,30.00,NE,51,1.0,1.0,58,0.00,,SKC,0.00,VWS V14.01,2013-02-08 06:34:00,
2013-02-07 23:39:00,39.0,25.5,30.00,NE,47,1.0,1.0,58,0.00,,SKC,0.00,VWS V14.01,2013-02-08 06:39:00,
2013-02-07 23:44:00,39.0,25.5,30.00,NE,56,1.0,2.0,58,0.00,,SKC,0.00,VWS V14.01,2013-02-08 06:44:00,
2013-02-07 23:49:00,38.9,25.4,29.99,NE,44,1.0,3.0,58,0.00,,SKC,0.00,VWS V14.01,2013-02-08 06:49:00,
2013-02-07 23:54:00,38.9,25.4,30.00,NNE,25,1.0,3.0,58,0.00,,SKC,0.00,VWS V14.01,2013-02-08 06:54:00,
2013-02-07 23:59:00,38.9,25.4,29.99,NE,40,1.0,3.0,58,0.00,,SKC,0.00,VWS V14.01,2013-02-08 06:59:00,